Time;durP1;ratioP1;P1;durP2;ratioP2;P2;SDS_P1;SDS_P2;PMS_P1;PMS_P2;Temp;Humidity;BMP_temperature;BMP_pressure;BME280_temperature;BME280_humidity;BME280_pressure;Samples;Min_cycle;Max_cycle;Signal;HPM_P1;HPM_P2
2024/01/17 00:00:52;;;;;;;9.63;4.35;;;;;;;-5.73;77.81;99544.63;5054547;28;20052;-68
2024/01/17 00:03:55;;;;;;;11.38;4.85;;;;;;;-5.82;77.08;99539.56;5054416;28;20513;-67
2024/01/17 00:06:59;;;;;;;10.10;5.03;;;;;;;-5.67;76.67;99524.25;5043225;28;20048;-67
2024/01/17 00:10:03;;;;;;;11.18;4.97;;;;;;;-5.78;75.99;99512.41;5048820;28;20558;-68
2024/01/17 00:13:07;;;;;;;10.75;4.65;;;;;;;-5.94;75.97;99509.91;5054324;28;20039;-68
2024/01/17 00:16:10;;;;;;;13.45;5.40;;;;;;;-5.96;76.38;99500.59;5054083;28;20103;-68
2024/01/17 00:19:14;;;;;;;11.68;4.80;;;;;;;-5.92;76.55;99484.44;5054218;28;20422;-67
2024/01/17 00:22:17;;;;;;;11.07;5.93;;;;;;;-5.93;76.53;99486.16;5054004;28;20052;-68
2024/01/17 00:25:20;;;;;;;11.25;5.50;;;;;;;-5.95;76.47;99479.38;5053925;28;20048;-68
2024/01/17 00:28:23;;;;;;;;;;;;;;;-6.17;77.34;99476.88;5054644;28;20131;-68
2024/01/17 00:31:26;;;;;;;15.15;4.88;;;;;;;-6.07;76.90;99477.69;5053943;28;20381;-67
2024/01/17 00:34:30;;;;;;;9.70;4.90;;;;;;;-6.17;76.94;99468.41;5053965;28;20431;-68
2024/01/17 00:37:33;;;;;;;10.27;5.25;;;;;;;-6.10;77.53;99462.44;5053154;28;20052;-68
2024/01/17 00:40:36;;;;;;;9.48;4.47;;;;;;;-6.03;77.92;99453.97;5053277;28;20106;-68
2024/01/17 00:43:40;;;;;;;10.05;4.93;;;;;;;-5.94;77.76;99453.06;5053643;28;20629;-68
2024/01/17 00:46:43;;;;;;;10.15;4.82;;;;;;;-5.79;77.60;99434.34;5053599;28;20098;-68
2024/01/17 00:49:47;;;;;;;12.13;5.60;;;;;;;-5.77;76.99;99425.84;5053403;28;20423;-68
2024/01/17 00:52:50;;;;;;;;;;;;;;;-5.92;76.58;99411.47;5053813;28;20098;-68
2024/01/17 00:55:55;;;;;;;11.70;5.82;;;;;;;-5.85;76.01;99415.66;5052688;28;20046;-68
2024/01/17 00:58:59;;;;;;;13.45;5.18;;;;;;;-6.03;76.84;99415.78;5053407;28;20043;-68
2024/01/17 01:02:02;;;;;;;12.95;5.22;;;;;;;-6.02;77.55;99414.09;5053553;28;20564;-67
2024/01/17 01:05:05;;;;;;;10.35;5.50;;;;;;;-5.95;76.90;99410.66;5049261;28;20052;-68
2024/01/17 01:08:08;;;;;;;13.65;4.70;;;;;;;-5.84;77.20;99406.31;5041407;28;20044;-68
2024/01/17 01:11:12;;;;;;;11.18;5.40;;;;;;;-5.90;76.49;99407.22;5033531;28;20044;-68
2024/01/17 01:14:15;;;;;;;10.13;4.57;;;;;;;-5.97;76.27;99402.16;5033281;28;20044;-68
2024/01/17 01:17:18;;;;;;;9.98;5.07;;;;;;;-6.07;76.86;99405.59;5033162;28;20040;-68
2024/01/17 01:20:22;;;;;;;9.82;5.20;;;;;;;-5.91;76.24;99404.66;5033353;28;20758;-68
2024/01/17 01:23:27;;;;;;;15.55;5.57;;;;;;;-5.98;77.16;99395.41;5036945;28;20178;-68
2024/01/17 01:26:30;;;;;;;11.88;5.40;;;;;;;-5.85;76.73;99400.41;5037531;28;20485;-68
2024/01/17 01:29:33;;;;;;;10.95;5.90;;;;;;;-6.04;76.40;99401.34;5042546;28;20525;-68
2024/01/17 01:32:37;;;;;;;8.75;5.03;;;;;;;-6.07;76.55;99403.91;5053112;28;20094;-68
2024/01/17 01:35:40;;;;;;;13.68;5.70;;;;;;;-5.98;77.18;99395.41;5052699;28;20040;-68
2024/01/17 01:38:43;;;;;;;14.18;5.53;;;;;;;-5.99;77.27;99391.16;5052591;28;20099;-69
2024/01/17 01:41:47;;;;;;;17.90;6.53;;;;;;;-5.79;76.95;99384.25;5052748;28;20101;-68
2024/01/17 01:44:50;;;;;;;12.73;6.28;;;;;;;-5.89;75.61;99380.91;5052889;28;20585;-68
2024/01/17 01:47:53;;;;;;;11.23;5.47;;;;;;;-5.98;75.78;99373.34;5052982;28;20106;-68
2024/01/17 01:50:57;;;;;;;10.68;5.30;;;;;;;-6.03;76.60;99377.63;5052589;28;20098;-68
2024/01/17 01:54:02;;;;;;;12.70;4.93;;;;;;;-5.91;75.89;99362.22;5052661;28;20092;-69
2024/01/17 01:57:08;;;;;;;15.18;6.18;;;;;;;-6.03;77.01;99367.44;5051681;28;20040;-68
2024/01/17 02:00:12;;;;;;;14.00;5.75;;;;;;;-5.96;76.91;99364.00;5052803;28;20040;-68
2024/01/17 02:03:20;;;;;;;12.23;5.85;;;;;;;-5.82;76.98;99360.50;5052575;28;20039;-68
2024/01/17 02:06:27;;;;;;;11.80;6.53;;;;;;;-5.72;76.92;99339.25;5052329;28;20362;-68
2024/01/17 02:09:30;;;;;;;13.40;5.47;;;;;;;-5.73;77.24;99338.41;5052493;28;20056;-69
2024/01/17 02:12:33;;;;;;;13.90;7.60;;;;;;;-5.74;77.33;99328.19;5052406;28;20044;-69
2024/01/17 02:15:37;;;;;;;21.25;8.48;;;;;;;-5.74;77.82;99328.19;5052451;28;20517;-69
2024/01/17 02:18:42;;;;;;;21.95;11.75;;;;;;;-5.72;79.12;99321.41;5052456;28;20047;-68
2024/01/17 02:21:46;;;;;;;25.02;13.30;;;;;;;-5.62;78.67;99305.22;5049270;28;20120;-69
2024/01/17 02:24:49;;;;;;;20.35;8.18;;;;;;;-5.62;77.81;99317.94;5037854;28;20045;-69
2024/01/17 02:27:52;;;;;;;15.25;7.80;;;;;;;-5.71;77.68;99302.72;5035392;28;20107;-69
2024/01/17 02:30:56;;;;;;;;;;;;;;;-5.56;77.34;99307.72;5033059;28;20052;-68
2024/01/17 02:34:00;;;;;;;21.10;8.73;;;;;;;-5.77;77.38;99302.78;5032471;28;19920;-68
2024/01/17 02:37:03;;;;;;;13.60;8.18;;;;;;;-5.77;78.05;99308.72;5032191;28;20040;-68
2024/01/17 02:40:07;;;;;;;23.50;10.63;;;;;;;-5.83;78.39;99293.47;5032200;28;20589;-69
2024/01/17 02:43:10;;;;;;;28.17;10.65;;;;;;;-5.74;78.36;99292.56;5032256;28;20055;-68
2024/01/17 02:46:13;;;;;;;21.63;10.85;;;;;;;-5.76;77.10;99284.09;5032160;28;20044;-68
2024/01/17 02:49:19;;;;;;;21.55;10.70;;;;;;;-5.94;77.47;99265.56;5033506;28;20049;-68
2024/01/17 02:52:22;;;;;;;25.20;11.30;;;;;;;-5.97;77.44;99252.00;5036034;28;20188;-68
2024/01/17 02:55:25;;;;;;;22.05;11.73;;;;;;;-5.89;78.19;99240.06;5045319;28;20044;-68
2024/01/17 02:58:29;;;;;;;22.10;11.85;;;;;;;-5.83;77.79;99242.56;5042588;28;20510;-68
2024/01/17 03:01:33;;;;;;;19.65;10.60;;;;;;;-5.75;77.44;99242.50;5035939;28;20060;-69
2024/01/17 03:04:36;;;;;;;19.67;11.38;;;;;;;-5.68;77.47;99223.78;5035548;28;20052;-69
2024/01/17 03:07:40;;;;;;;17.90;9.43;;;;;;;-5.81;77.06;99227.28;5035576;28;20044;-69
2024/01/17 03:10:43;;;;;;;16.50;9.73;;;;;;;-5.92;77.88;99220.56;5035510;28;20083;-69
2024/01/17 03:13:47;;;;;;;15.77;10.85;;;;;;;-5.88;78.03;99219.69;5035531;28;20040;-69
2024/01/17 03:16:50;;;;;;;24.55;9.73;;;;;;;-5.86;77.24;99202.69;5035350;28;20041;-69
2024/01/17 03:19:54;;;;;;;17.48;9.60;;;;;;;-6.00;78.29;99203.66;5035359;28;20462;-68
2024/01/17 03:22:57;;;;;;;18.58;10.45;;;;;;;-5.97;78.26;99213.84;5035263;28;20172;-68
2024/01/17 03:26:02;;;;;;;17.42;9.75;;;;;;;-6.01;77.18;99205.38;5035140;28;20111;-68
2024/01/17 03:29:06;;;;;;;23.30;12.32;;;;;;;-6.04;77.68;99202.84;5035245;28;20064;-68
2024/01/17 03:32:09;;;;;;;26.00;12.27;;;;;;;-6.03;78.52;99194.38;5035069;28;20172;-69
2024/01/17 03:35:12;;;;;;;19.38;10.23;;;;;;;-6.18;78.31;99189.38;5035310;28;20040;-68
2024/01/17 03:38:18;;;;;;;18.00;10.65;;;;;;;-6.28;79.10;99188.59;5035317;28;20068;-68
2024/01/17 03:41:22;;;;;;;18.50;10.82;;;;;;;-6.07;79.62;99177.41;5034915;28;20522;-68
2024/01/17 03:44:25;;;;;;;22.40;11.57;;;;;;;-6.25;79.40;99169.91;5034832;28;20133;-68
2024/01/17 03:47:29;;;;;;;20.23;11.35;;;;;;;-6.16;77.61;99170.72;5034843;28;20048;-68
2024/01/17 03:50:33;;;;;;;20.48;10.48;;;;;;;-6.17;77.35;99160.53;4995399;28;20050;-68
2024/01/17 03:53:36;;;;;;;20.98;9.88;;;;;;;-5.99;76.57;99155.31;4996611;28;22029;-68
2024/01/17 03:56:39;;;;;;;23.63;9.70;;;;;;;-6.05;76.93;99155.38;5001599;28;20045;-68
2024/01/17 03:59:43;;;;;;;26.42;13.60;;;;;;;-6.08;77.33;99142.66;4995733;28;20077;-68
2024/01/17 04:02:47;;;;;;;29.40;12.82;;;;;;;-6.14;77.81;99140.16;4995477;28;20085;-68
2024/01/17 04:05:50;;;;;;;16.30;10.02;;;;;;;-6.14;78.62;99127.44;5000219;28;20049;-68
2024/01/17 04:08:54;;;;;;;24.85;10.38;;;;;;;-6.13;78.82;99111.31;5010186;28;20071;-68
2024/01/17 04:11:58;;;;;;;24.38;10.27;;;;;;;-5.97;78.17;99107.78;4995242;28;20053;-68
2024/01/17 04:15:01;;;;;;;22.00;10.93;;;;;;;-5.96;77.84;99098.47;4995045;28;20511;-68
2024/01/17 04:18:04;;;;;;;32.35;12.98;;;;;;;-6.11;78.21;99076.53;4994896;28;20061;-68
2024/01/17 04:21:08;;;;;;;;;;;;;;;-6.22;79.17;99070.66;4995448;28;20514;-68
2024/01/17 04:24:11;;;;;;;22.92;11.00;;;;;;;-6.12;78.73;99075.69;4994999;28;20401;-68
2024/01/17 04:27:34;;;;;;;25.80;10.65;;;;;;;-6.23;79.87;99074.91;4994526;28;20100;-68
2024/01/17 04:30:37;;;;;;;22.00;11.73;;;;;;;-6.14;79.62;99063.84;4994512;28;20149;-68
2024/01/17 04:33:40;;;;;;;34.42;16.35;;;;;;;-6.23;79.84;99064.75;4993492;28;20057;-68
2024/01/17 04:36:44;;;;;;;36.95;20.60;;;;;;;-6.00;79.06;99061.16;4994467;28;20119;-68
2024/01/17 04:39:47;;;;;;;51.45;27.08;;;;;;;-6.05;78.86;99053.59;4994107;28;20525;-68
2024/01/17 04:42:50;;;;;;;24.55;13.15;;;;;;;-6.13;78.79;99042.59;4994362;28;20048;-68
2024/01/17 04:45:53;;;;;;;26.63;13.35;;;;;;;-6.28;78.86;99028.34;4994391;28;20049;-68
2024/01/17 04:48:57;;;;;;;24.95;11.32;;;;;;;-6.12;78.60;99027.34;5020022;28;20160;-68
2024/01/17 04:52:00;;;;;;;23.50;12.55;;;;;;;-6.09;78.42;99016.31;5033653;28;20111;-68
2024/01/17 04:55:04;;;;;;;;;;;;;;;-6.14;78.42;99018.03;5033877;28;20048;-68
2024/01/17 04:58:07;;;;;;;27.35;15.70;;;;;;;-6.14;78.13;99006.16;5031976;28;19920;-69
2024/01/17 05:01:10;;;;;;;22.85;11.23;;;;;;;-6.10;78.33;98996.78;5033305;28;20049;-68
2024/01/17 05:04:14;;;;;;;24.38;11.50;;;;;;;-6.12;78.30;98990.88;5033380;28;20040;-68
2024/01/17 05:07:17;;;;;;;18.85;10.90;;;;;;;-6.07;77.54;98973.84;5033247;28;20485;-68
2024/01/17 05:10:23;;;;;;;28.70;11.60;;;;;;;-6.08;77.64;98972.19;5033333;28;20048;-68
2024/01/17 05:13:28;;;;;;;25.30;10.82;;;;;;;-6.25;78.14;98969.81;5032850;28;20052;-68
2024/01/17 05:16:31;;;;;;;27.25;12.23;;;;;;;-6.11;78.25;98957.78;5033130;28;20091;-68
2024/01/17 05:19:35;;;;;;;26.65;10.00;;;;;;;-6.20;77.83;98952.78;5033129;28;20047;-68
2024/01/17 05:22:39;;;;;;;22.08;9.00;;;;;;;-6.24;78.60;98953.69;5033080;28;20048;-68
2024/01/17 05:25:43;;;;;;;20.15;8.23;;;;;;;-6.12;78.22;98950.19;5032353;28;20045;-68
2024/01/17 05:28:46;;;;;;;24.23;10.48;;;;;;;-6.12;77.76;98933.22;5033093;28;20141;-68
2024/01/17 05:31:49;;;;;;;24.63;10.63;;;;;;;-6.12;76.83;98927.28;5033009;28;20048;-68
2024/01/17 05:34:54;;;;;;;22.48;8.63;;;;;;;-6.10;77.05;98920.47;5032899;28;20422;-68
2024/01/17 05:37:59;;;;;;;26.02;10.88;;;;;;;-6.05;77.18;98917.88;5032911;28;20103;-68
2024/01/17 05:41:03;;;;;;;27.65;10.85;;;;;;;-5.87;77.26;98908.31;5032872;28;20113;-68
2024/01/17 05:44:06;;;;;;;22.95;9.50;;;;;;;-5.94;77.52;98909.25;5032885;28;20050;-68
2024/01/17 05:47:09;;;;;;;18.77;10.10;;;;;;;-5.99;77.08;98890.66;5032740;28;20111;-69
2024/01/17 05:50:12;;;;;;;25.33;11.27;;;;;;;-5.90;77.11;98887.97;5043266;28;20064;-68
2024/01/17 05:53:15;;;;;;;;;;;;;;;-5.87;77.67;98875.22;5033143;28;20039;-68
2024/01/17 05:56:18;;;;;;;22.20;10.38;;;;;;;-5.78;77.27;98860.66;5032797;28;20434;-68
2024/01/17 05:59:22;;;;;;;22.92;10.50;;;;;;;-5.91;77.52;98857.44;5032870;28;20530;-68
2024/01/17 06:02:25;;;;;;;30.58;13.57;;;;;;;-5.77;77.11;98852.19;5031949;28;20045;-68
2024/01/17 06:05:28;;;;;;;32.13;12.90;;;;;;;-5.76;77.01;98841.13;5032162;28;20053;-68
2024/01/17 06:08:32;;;;;;;23.75;11.70;;;;;;;-5.77;76.78;98839.47;5032385;28;20505;-68
2024/01/17 06:11:35;;;;;;;25.55;12.38;;;;;;;-5.91;77.11;98839.63;5031796;28;20052;-69
2024/01/17 06:14:40;;;;;;;;;;;;;;;-5.73;77.01;98836.00;5032703;28;20526;-69
2024/01/17 06:17:44;;;;;;;26.27;10.07;;;;;;;-5.82;77.76;98828.50;5032482;28;19920;-69
2024/01/17 06:20:47;;;;;;;23.05;9.60;;;;;;;-5.80;77.22;98816.59;5032481;28;20109;-68
2024/01/17 06:23:51;;;;;;;20.60;12.57;;;;;;;-5.82;77.80;98803.88;5035020;28;20048;-68
2024/01/17 06:26:54;;;;;;;21.98;11.02;;;;;;;-5.62;77.36;98806.13;5036253;28;20045;-68
2024/01/17 06:29:57;;;;;;;23.80;10.00;;;;;;;-5.50;76.70;98807.66;5036376;28;20052;-68
2024/01/17 06:33:02;;;;;;;27.83;9.10;;;;;;;-5.58;76.18;98804.38;5036273;28;20418;-68
2024/01/17 06:40:00;;;;;;;22.38;10.27;;;;;;;-5.86;76.86;98804.78;5039073;28;20072;-69
2024/01/17 06:43:04;;;;;;;22.55;10.48;;;;;;;-5.96;76.91;98801.56;5055991;28;20044;-67
2024/01/17 06:46:08;;;;;;;19.23;9.20;;;;;;;-5.88;76.99;98799.69;5053871;28;20087;-68
2024/01/17 06:49:13;;;;;;;18.65;9.70;;;;;;;-5.74;76.79;98791.03;5053652;28;20111;-68
2024/01/17 06:52:16;;;;;;;20.55;9.60;;;;;;;-5.72;77.17;98782.50;5054196;28;20052;-68
2024/01/17 06:55:20;;;;;;;;;;;;;;;-5.62;77.13;98788.31;5055270;28;20043;-68
2024/01/17 06:58:24;;;;;;;;;;;;;;;-5.39;76.54;98781.16;5055616;28;19979;-68
2024/01/17 07:01:27;;;;;;;38.83;17.10;;;;;;;-5.48;76.85;98772.84;5055302;28;19920;-69
2024/01/17 07:04:31;;;;;;;31.27;14.88;;;;;;;-5.46;77.25;98764.28;5054953;28;20051;-66
2024/01/17 07:07:34;;;;;;;24.08;12.25;;;;;;;-5.42;77.46;98750.66;5053509;28;20068;-68
2024/01/17 07:10:38;;;;;;;;;;;;;;;-5.34;76.91;98754.78;5055545;28;20048;-69
2024/01/17 07:13:42;;;;;;;21.85;10.10;;;;;;;-5.31;76.23;98742.81;5055328;28;19974;-68
2024/01/17 07:16:45;;;;;;;16.02;9.35;;;;;;;-5.23;76.68;98735.06;5053660;28;20059;-68
2024/01/17 07:19:48;;;;;;;20.33;9.18;;;;;;;-5.23;76.26;98735.06;5053930;28;20083;-67
2024/01/17 07:22:52;;;;;;;16.67;9.13;;;;;;;-5.29;75.37;98730.91;5054787;28;20055;-68
2024/01/17 07:25:55;;;;;;;28.55;13.88;;;;;;;-5.28;75.98;98732.59;5053960;28;20047;-68
2024/01/17 07:28:58;;;;;;;37.65;18.00;;;;;;;-5.37;75.79;98725.94;5053095;28;20047;-80
2024/01/17 07:32:02;;;;;;;;;;;;;;;-5.51;77.14;98722.78;5054263;28;20051;-68
2024/01/17 07:35:07;;;;;;;38.28;17.77;;;;;;;-5.57;77.01;98714.41;5052477;28;19966;-68
2024/01/17 07:38:14;;;;;;;25.88;12.27;;;;;;;-5.50;77.43;98704.09;5053676;28;20132;-68
2024/01/17 07:41:20;;;;;;;22.95;12.10;;;;;;;-5.34;77.27;98702.13;5053915;28;20170;-68
2024/01/17 07:44:29;;;;;;;23.52;12.02;;;;;;;-5.20;76.79;98694.22;5052346;28;20132;-68
2024/01/17 07:47:32;;;;;;;20.77;10.60;;;;;;;-5.23;77.78;98689.22;5053517;28;20094;-69
2024/01/17 07:50:36;;;;;;;31.88;10.40;;;;;;;-5.07;77.61;98677.88;5052956;28;20084;-69
2024/01/17 07:53:39;;;;;;;18.10;9.15;;;;;;;-5.12;76.90;98672.00;5053042;28;20464;-70
2024/01/17 07:56:43;;;;;;;18.85;8.65;;;;;;;-5.07;76.23;98672.75;5052201;28;20068;-69
2024/01/17 07:59:46;;;;;;;17.63;9.27;;;;;;;-5.07;75.91;98657.47;5053249;28;20059;-69
2024/01/17 08:02:50;;;;;;;17.00;9.77;;;;;;;-4.98;77.04;98658.97;5053120;28;20051;-68
2024/01/17 08:05:54;;;;;;;19.40;10.52;;;;;;;-4.85;76.88;98646.84;5052755;28;20102;-70
2024/01/17 08:08:59;;;;;;;;;;;;;;;-4.81;75.97;98635.72;5053210;28;20164;-69
2024/01/17 08:12:03;;;;;;;20.65;10.85;;;;;;;-4.94;76.53;98625.78;5052644;28;19943;-69
2024/01/17 08:15:08;;;;;;;24.60;10.25;;;;;;;-4.70;76.74;98618.47;5052566;28;20128;-68
2024/01/17 08:18:13;;;;;;;17.67;9.80;;;;;;;-4.69;77.03;98604.84;5050796;28;20047;-68
2024/01/17 08:21:17;;;;;;;15.43;9.10;;;;;;;-4.69;76.71;98599.75;5051495;28;20063;-67
2024/01/17 08:24:21;;;;;;;19.98;12.75;;;;;;;-4.68;76.67;98592.09;5049386;28;20509;-66
2024/01/17 08:27:24;;;;;;;20.30;10.50;;;;;;;-4.81;77.99;98580.47;5049969;28;20089;-69
2024/01/17 08:30:28;;;;;;;16.35;9.07;;;;;;;-4.57;77.74;98576.53;5051274;28;20110;-69
2024/01/17 08:33:31;;;;;;;14.32;10.18;;;;;;;-4.58;77.08;98571.47;5052165;28;20051;-70
2024/01/17 08:36:34;;;;;;;13.98;8.77;;;;;;;-4.47;76.90;98569.50;5052267;28;20044;-69
2024/01/17 08:39:38;;;;;;;17.05;9.10;;;;;;;-4.49;77.63;98567.00;5051709;28;20423;-68
2024/01/17 08:42:44;;;;;;;16.75;9.15;;;;;;;-4.34;77.07;98554.75;5052061;28;20137;-69
2024/01/17 08:45:47;;;;;;;14.80;9.35;;;;;;;-4.31;76.65;98549.59;5051826;28;20102;-68
2024/01/17 08:48:50;;;;;;;16.15;8.65;;;;;;;-4.19;76.37;98544.19;5051697;28;20095;-71
2024/01/17 08:51:55;;;;;;;21.20;9.85;;;;;;;-4.12;76.59;98540.59;5051737;28;20060;-68
2024/01/17 08:55:01;;;;;;;19.33;9.77;;;;;;;-4.04;76.73;98541.25;5052659;28;20124;-69
2024/01/17 08:58:06;;;;;;;20.25;13.50;;;;;;;-4.08;76.36;98524.34;5051140;28;20047;-68
2024/01/17 09:01:10;;;;;;;18.50;8.93;;;;;;;-4.21;76.44;98521.28;5051737;28;20058;-67
2024/01/17 09:04:13;;;;;;;16.85;9.05;;;;;;;-3.99;76.01;98511.38;5051284;28;20044;-68
2024/01/17 09:07:16;;;;;;;20.42;10.20;;;;;;;-3.99;76.39;98503.72;5051572;28;20139;-67
2024/01/17 09:10:20;;;;;;;16.45;9.80;;;;;;;-3.81;76.30;98498.97;5051746;28;20130;-66
2024/01/17 09:13:23;;;;;;;16.83;9.18;;;;;;;-3.80;75.82;98495.53;5051779;28;20052;-67
2024/01/17 09:16:27;;;;;;;20.40;10.77;;;;;;;-3.82;76.53;98487.94;5051926;28;20513;-67
2024/01/17 09:19:31;;;;;;;20.40;9.60;;;;;;;-3.76;76.36;98477.56;5051752;28;20043;-67
2024/01/17 09:22:35;;;;;;;17.95;10.45;;;;;;;-3.72;76.16;98475.75;5052098;28;20044;-67
2024/01/17 09:25:38;;;;;;;20.13;11.02;;;;;;;-3.99;76.75;98467.09;5050905;28;20532;-67
2024/01/17 09:28:41;;;;;;;;;;;;;;;-3.86;77.15;98470.16;5051527;28;20102;-67
2024/01/17 09:31:45;;;;;;;15.48;9.80;;;;;;;-3.87;77.40;98463.41;5050718;28;20344;-69
2024/01/17 09:34:48;;;;;;;24.15;11.18;;;;;;;-3.82;78.51;98456.47;5048465;28;20525;-71
2024/01/17 09:37:52;;;;;;;20.35;10.25;;;;;;;-3.66;76.48;98457.72;5050500;28;20051;-67
2024/01/17 09:40:55;;;;;;;20.08;9.95;;;;;;;-3.72;79.50;98447.66;5050415;28;20048;-64
2024/01/17 09:44:00;;;;;;;17.95;9.75;;;;;;;-3.56;79.51;98446.34;5049730;28;20133;-68
2024/01/17 09:47:05;;;;;;;21.90;11.15;;;;;;;-3.92;81.21;98447.38;5050605;28;20075;-64
2024/01/17 09:50:08;;;;;;;17.08;9.70;;;;;;;-3.75;79.60;98447.75;5030479;28;20118;-68
2024/01/17 09:53:15;;;;;;;18.45;9.90;;;;;;;-3.37;78.32;98433.03;5042883;28;20094;-67
2024/01/17 09:56:18;;;;;;;20.35;10.88;;;;;;;-3.38;77.36;98426.25;5050837;28;20118;-67
2024/01/17 09:59:28;;;;;;;18.10;10.65;;;;;;;-3.21;77.57;98424.03;5050661;28;20059;-67
2024/01/17 10:02:36;;;;;;;19.23;10.57;;;;;;;-3.15;77.40;98417.91;5049855;28;20051;-67
2024/01/17 10:05:41;;;;;;;17.67;11.38;;;;;;;-3.25;76.71;98404.56;5050710;28;20510;-67
2024/01/17 10:08:46;;;;;;;15.50;10.02;;;;;;;-3.31;77.96;98400.47;5048840;28;20402;-67
2024/01/17 10:11:51;;;;;;;22.38;12.43;;;;;;;-3.18;78.01;98398.38;5049745;28;20132;-68
2024/01/17 10:14:55;;;;;;;16.48;10.43;;;;;;;-3.08;77.73;98384.44;5049085;28;20099;-67
2024/01/17 10:18:01;;;;;;;16.02;10.43;;;;;;;-3.21;77.51;98383.16;5048172;28;20087;-68
2024/01/17 10:21:07;;;;;;;19.17;11.98;;;;;;;-3.14;78.54;98366.72;5049084;28;20120;-67
2024/01/17 10:24:11;;;;;;;16.00;10.15;;;;;;;-3.04;77.98;98357.88;5049745;28;20533;-67
2024/01/17 10:27:17;;;;;;;17.73;10.48;;;;;;;-3.05;77.44;98348.53;5047677;28;20080;-67
2024/01/17 10:30:32;;;;;;;19.65;11.48;;;;;;;-3.05;78.60;98333.19;5049907;28;20036;-67
2024/01/17 10:33:38;;;;;;;21.33;11.48;;;;;;;-3.27;78.98;98315.16;5047514;28;20040;-67
2024/01/17 10:36:45;;;;;;;15.63;11.60;;;;;;;-2.98;78.94;98315.09;5048778;28;20506;-67
2024/01/17 10:40:10;;;;;;;19.63;10.13;;;;;;;-2.90;79.21;98315.69;5046669;28;20079;-67
2024/01/17 10:43:16;;;;;;;17.33;10.48;;;;;;;-2.89;78.05;98314.81;5045846;28;20458;-67
2024/01/17 10:46:19;;;;;;;21.60;11.20;;;;;;;-2.83;78.27;98297.53;5048762;28;20052;-67
2024/01/17 10:49:24;;;;;;;18.85;10.73;;;;;;;-2.76;78.62;98298.16;5048905;28;20111;-67
2024/01/17 10:52:36;;;;;;;21.23;10.85;;;;;;;-2.74;78.61;98295.53;5049360;28;20044;-67
2024/01/17 10:55:44;;;;;;;18.88;12.38;;;;;;;-2.69;78.66;98297.06;5047910;28;20175;-67
2024/01/17 10:58:50;;;;;;;20.17;11.07;;;;;;;-2.70;78.78;98285.16;5048076;28;20673;-67
2024/01/17 11:01:55;;;;;;;24.65;13.25;;;;;;;-2.70;78.21;98285.16;5048903;28;20048;-68
2024/01/17 11:05:15;;;;;;;20.45;12.45;;;;;;;-2.61;78.79;98278.91;5048245;28;20133;-68
2024/01/17 11:08:20;;;;;;;17.80;11.45;;;;;;;-2.70;79.42;98267.25;5049125;28;20465;-68
2024/01/17 11:11:25;;;;;;;18.45;11.10;;;;;;;-2.59;79.65;98251.53;5049800;28;20464;-67
2024/01/17 11:14:31;;;;;;;18.95;11.77;;;;;;;-2.60;80.25;98247.31;5052791;28;20454;-67
2024/01/17 11:17:36;;;;;;;23.33;12.23;;;;;;;-2.76;80.11;98252.13;5052256;28;20060;-68
2024/01/17 11:20:41;;;;;;;18.48;11.30;;;;;;;-2.59;80.53;98239.56;5052152;28;20047;-68
2024/01/17 11:24:10;;;;;;;27.27;13.73;;;;;;;-2.57;80.13;98232.66;5050408;28;20131;-66
2024/01/17 11:27:17;;;;;;;21.17;12.20;;;;;;;-2.47;80.53;98234.91;5051612;28;20064;-67
2024/01/17 11:30:48;;;;;;;24.05;13.32;;;;;;;-2.52;81.67;98224.00;5052593;28;20039;-66
2024/01/17 11:33:52;;;;;;;23.20;14.15;;;;;;;-2.44;81.61;98212.59;5051462;28;20410;-66
2024/01/17 11:36:56;;;;;;;24.30;14.00;;;;;;;-2.43;81.88;98208.31;5051731;28;20044;-67
2024/01/17 11:40:01;;;;;;;58.45;30.67;;;;;;;-2.32;81.48;98201.06;5052348;28;20139;-67
2024/01/17 11:43:06;;;;;;;22.52;12.90;;;;;;;-2.42;82.62;98194.63;5049153;28;20105;-67
2024/01/17 11:46:14;;;;;;;27.65;15.35;;;;;;;-2.32;82.85;98184.88;5051837;28;20510;-67
2024/01/17 11:49:42;;;;;;;21.20;12.70;;;;;;;-2.20;82.79;98174.16;5051116;28;20513;-67
2024/01/17 11:52:47;;;;;;;20.38;13.38;;;;;;;-2.25;83.31;98155.59;5050219;28;20075;-67
2024/01/17 11:55:50;;;;;;;21.42;12.77;;;;;;;-2.16;83.71;98145.00;5053031;28;20063;-66
2024/01/17 11:59:03;;;;;;;20.88;11.60;;;;;;;-2.12;83.60;98142.25;5053010;28;20423;-66
2024/01/17 12:02:07;;;;;;;15.82;11.60;;;;;;;-1.97;82.81;98124.63;5052893;28;20052;-67
2024/01/17 12:05:11;;;;;;;;;;;;;;;-1.97;83.66;98124.63;5052433;28;20421;-67
2024/01/17 12:08:17;;;;;;;21.45;13.13;;;;;;;-2.08;84.35;98109.69;5051853;28;20341;-67
2024/01/17 12:11:22;;;;;;;17.48;11.48;;;;;;;-2.12;85.04;98098.72;5052489;28;20051;-68
2024/01/17 12:14:27;;;;;;;19.13;12.52;;;;;;;-2.04;85.23;98083.09;5052476;28;20048;-67
2024/01/17 12:17:30;;;;;;;20.10;12.57;;;;;;;-1.96;85.59;98075.91;5052302;28;20040;-67
2024/01/17 12:20:33;;;;;;;18.63;13.38;;;;;;;-2.00;86.69;98068.41;5032270;28;20096;-67
2024/01/17 12:23:37;;;;;;;17.10;12.48;;;;;;;-2.03;88.29;98048.88;5039593;28;20604;-66
2024/01/17 12:26:42;;;;;;;18.83;13.45;;;;;;;-1.86;87.86;98037.94;5051627;28;20083;-66
2024/01/17 12:29:47;;;;;;;18.98;12.98;;;;;;;-1.74;88.09;98034.88;5052164;28;20052;-66
2024/01/17 12:32:50;;;;;;;22.85;12.40;;;;;;;-1.68;88.35;98028.66;5052273;28;20071;-66
2024/01/17 12:35:56;;;;;;;24.60;16.08;;;;;;;-1.74;88.46;98016.09;5052403;28;20171;-67
2024/01/17 12:39:04;;;;;;;19.40;13.10;;;;;;;-1.55;87.89;98003.34;5052289;28;20048;-66
2024/01/17 12:42:08;;;;;;;17.85;12.93;;;;;;;-1.56;87.44;97993.97;5051270;28;20565;-68
2024/01/17 12:45:11;;;;;;;21.85;13.80;;;;;;;-1.55;88.48;98003.34;5032165;28;20045;-69
2024/01/17 12:48:15;;;;;;;21.73;13.93;;;;;;;-1.56;89.10;97993.97;5036299;28;20356;-71
2024/01/17 12:51:19;;;;;;;21.65;14.00;;;;;;;-1.46;88.70;97982.44;5051916;28;20090;-69
2024/01/17 12:54:23;;;;;;;22.33;13.48;;;;;;;-1.59;89.37;97971.06;5051791;28;20044;-66
2024/01/17 12:57:27;;;;;;;19.33;13.73;;;;;;;-1.75;89.88;97958.09;5051759;28;20106;-67
2024/01/17 13:00:30;;;;;;;18.83;13.80;;;;;;;-1.51;89.45;97949.31;5031717;28;20431;-67
2024/01/17 13:03:33;;;;;;;18.67;13.35;;;;;;;-1.43;89.13;97942.13;5037475;28;20494;-69
2024/01/17 13:06:47;;;;;;;21.80;14.20;;;;;;;-1.37;88.49;97938.47;5051413;28;20103;-66
2024/01/17 13:09:50;;;;;;;19.92;13.45;;;;;;;-1.31;89.19;97932.19;5051450;28;20154;-67
2024/01/17 13:12:58;;;;;;;19.80;14.43;;;;;;;-1.29;89.44;97923.53;5051709;28;20047;-67
2024/01/17 13:16:04;;;;;;;24.40;15.20;;;;;;;-1.26;89.07;97913.16;5031744;28;20044;-67
2024/01/17 13:19:10;;;;;;;22.50;14.32;;;;;;;-1.16;89.25;97911.00;5041793;28;20406;-67
2024/01/17 13:22:22;;;;;;;28.40;17.73;;;;;;;-1.19;89.20;97899.13;5051662;28;20091;-68
2024/01/17 13:25:26;;;;;;;44.15;24.67;;;;;;;-1.19;89.40;97888.88;5031515;28;20044;-67
2024/01/17 13:28:29;;;;;;;31.13;18.77;;;;;;;-1.36;89.79;97881.16;5035467;28;20039;-67
2024/01/17 13:31:35;;;;;;;30.45;19.17;;;;;;;-1.26;90.37;97886.69;5051141;28;20044;-67
2024/01/17 13:34:40;;;;;;;37.28;22.75;;;;;;;-1.19;89.97;97870.09;5050972;28;20051;-67
2024/01/17 13:37:44;;;;;;;31.10;20.05;;;;;;;-1.17;90.16;97871.69;5051220;28;20107;-67
2024/01/17 13:40:47;;;;;;;21.67;14.73;;;;;;;-1.18;90.37;97869.22;5031276;28;20626;-68
2024/01/17 13:43:50;;;;;;;28.05;17.83;;;;;;;-1.06;89.93;97862.66;5037183;28;20094;-67
2024/01/17 13:46:54;;;;;;;24.83;16.48;;;;;;;-1.08;91.02;97872.19;5051071;28;20128;-67
2024/01/17 13:50:03;;;;;;;23.63;14.13;;;;;;;-1.08;90.67;97867.06;5050605;28;20064;-67
2024/01/17 13:53:18;;;;;;;23.25;14.75;;;;;;;-1.01;90.81;97855.59;5050929;28;20055;-67
2024/01/17 13:56:21;;;;;;;22.35;15.98;;;;;;;-1.00;90.81;97847.81;5051278;28;20418;-67
2024/01/17 13:59:24;;;;;;;20.38;15.02;;;;;;;-1.03;91.63;97836.88;5050774;28;20141;-67
2024/01/17 14:02:27;;;;;;;32.10;25.55;;;;;;;-0.99;91.62;97833.25;5051009;28;20110;-67
2024/01/17 14:05:31;;;;;;;25.58;17.20;;;;;;;-0.98;92.05;97822.94;5050797;28;20047;-67
2024/01/17 14:08:34;;;;;;;16.90;13.95;;;;;;;-0.91;92.38;97820.06;5051112;28;20059;-67
2024/01/17 14:11:40;;;;;;;19.60;15.05;;;;;;;-0.91;92.46;97820.88;5051031;28;20055;-66
2024/01/17 14:14:43;;;;;;;20.35;15.13;;;;;;;-0.84;92.46;97818.84;5050964;28;20040;-66
2024/01/17 14:17:47;;;;;;;18.63;14.98;;;;;;;-0.80;92.79;97816.06;5051096;28;20098;-66
2024/01/17 14:20:50;;;;;;;18.60;13.93;;;;;;;-0.78;92.61;97816.81;5051434;28;20048;-67